sensor_id;sensor_type;location;lat;lon;timestamp;temperature;humidity
18446;DHT22;9352;50.888;4.466;2023-03-21T00:01:14;11.10;99.90
18446;DHT22;9352;50.888;4.466;2023-03-21T00:03:41;11.20;99.90
18446;DHT22;9352;50.888;4.466;2023-03-21T00:06:10;11.20;99.90
18446;DHT22;9352;50.888;4.466;2023-03-21T00:08:39;11.20;99.90
18446;DHT22;9352;50.888;4.466;2023-03-21T00:11:07;11.20;99.90
18446;DHT22;9352;50.888;4.466;2023-03-21T00:13:35;11.20;99.90
18446;DHT22;9352;50.888;4.466;2023-03-21T00:16:08;11.20;99.90
18446;DHT22;9352;50.888;4.466;2023-03-21T00:18:40;11.20;99.90
18446;DHT22;9352;50.888;4.466;2023-03-21T00:21:10;11.20;99.90
18446;DHT22;9352;50.888;4.466;2023-03-21T00:23:42;11.10;99.90
18446;DHT22;9352;50.888;4.466;2023-03-21T00:26:09;11.10;99.90
18446;DHT22;9352;50.888;4.466;2023-03-21T00:28:36;11.10;99.90
18446;DHT22;9352;50.888;4.466;2023-03-21T00:31:04;11.10;99.90
18446;DHT22;9352;50.888;4.466;2023-03-21T00:33:31;11.10;99.90
18446;DHT22;9352;50.888;4.466;2023-03-21T00:35:59;11.10;99.90
18446;DHT22;9352;50.888;4.466;2023-03-21T00:38:26;11.10;99.90
18446;DHT22;9352;50.888;4.466;2023-03-21T00:40:55;11.10;99.90
18446;DHT22;9352;50.888;4.466;2023-03-21T00:43:22;11.10;99.90
18446;DHT22;9352;50.888;4.466;2023-03-21T00:45:55;11.10;99.90
18446;DHT22;9352;50.888;4.466;2023-03-21T00:48:22;11.10;99.90
18446;DHT22;9352;50.888;4.466;2023-03-21T00:50:50;11.10;99.90
18446;DHT22;9352;50.888;4.466;2023-03-21T00:53:19;11.10;99.90
18446;DHT22;9352;50.888;4.466;2023-03-21T00:55:46;11.10;99.90
18446;DHT22;9352;50.888;4.466;2023-03-21T00:58:14;11.10;99.90
18446;DHT22;9352;50.888;4.466;2023-03-21T01:00:42;11.10;99.90
18446;DHT22;9352;50.888;4.466;2023-03-21T01:03:12;11.10;99.90
18446;DHT22;9352;50.888;4.466;2023-03-21T01:05:42;11.10;99.90
18446;DHT22;9352;50.888;4.466;2023-03-21T01:08:27;11.00;99.90
18446;DHT22;9352;50.888;4.466;2023-03-21T01:10:55;11.00;99.90
18446;DHT22;9352;50.888;4.466;2023-03-21T01:13:24;11.00;99.90
18446;DHT22;9352;50.888;4.466;2023-03-21T01:15:54;11.00;99.90
18446;DHT22;9352;50.888;4.466;2023-03-21T01:18:23;11.00;99.90
18446;DHT22;9352;50.888;4.466;2023-03-21T01:20:53;11.10;99.90
18446;DHT22;9352;50.888;4.466;2023-03-21T01:23:21;11.10;99.90
18446;DHT22;9352;50.888;4.466;2023-03-21T01:25:48;11.10;99.90
18446;DHT22;9352;50.888;4.466;2023-03-21T01:28:16;11.10;99.90
18446;DHT22;9352;50.888;4.466;2023-03-21T01:30:48;11.10;99.90
18446;DHT22;9352;50.888;4.466;2023-03-21T01:33:16;11.10;99.90
18446;DHT22;9352;50.888;4.466;2023-03-21T01:35:44;11.10;99.90
18446;DHT22;9352;50.888;4.466;2023-03-21T01:38:11;11.10;99.90
18446;DHT22;9352;50.888;4.466;2023-03-21T01:40:39;11.20;99.90
18446;DHT22;9352;50.888;4.466;2023-03-21T01:43:24;11.10;99.90
18446;DHT22;9352;50.888;4.466;2023-03-21T01:46:24;11.20;99.90
18446;DHT22;9352;50.888;4.466;2023-03-21T01:48:57;11.20;99.90
18446;DHT22;9352;50.888;4.466;2023-03-21T01:51:26;11.10;99.90
18446;DHT22;9352;50.888;4.466;2023-03-21T01:53:54;11.20;99.90
18446;DHT22;9352;50.888;4.466;2023-03-21T01:56:24;11.20;99.90
18446;DHT22;9352;50.888;4.466;2023-03-21T01:58:55;11.20;99.90
18446;DHT22;9352;50.888;4.466;2023-03-21T02:01:25;11.20;99.90
18446;DHT22;9352;50.888;4.466;2023-03-21T02:03:52;11.30;99.90
18446;DHT22;9352;50.888;4.466;2023-03-21T02:06:27;11.30;99.90
18446;DHT22;9352;50.888;4.466;2023-03-21T02:09:01;11.30;99.90
18446;DHT22;9352;50.888;4.466;2023-03-21T02:11:29;11.30;99.90
18446;DHT22;9352;50.888;4.466;2023-03-21T02:13:57;11.30;99.90
18446;DHT22;9352;50.888;4.466;2023-03-21T02:16:35;11.30;99.90
18446;DHT22;9352;50.888;4.466;2023-03-21T02:19:29;11.30;99.90
18446;DHT22;9352;50.888;4.466;2023-03-21T02:28:08;11.40;99.90
18446;DHT22;9352;50.888;4.466;2023-03-21T02:31:00;11.40;99.90
18446;DHT22;9352;50.888;4.466;2023-03-21T02:36:49;11.40;99.90
18446;DHT22;9352;50.888;4.466;2023-03-21T02:39:22;11.40;99.90
18446;DHT22;9352;50.888;4.466;2023-03-21T02:41:56;11.40;99.90
18446;DHT22;9352;50.888;4.466;2023-03-21T02:44:32;11.40;99.90
18446;DHT22;9352;50.888;4.466;2023-03-21T02:47:05;11.40;99.90
18446;DHT22;9352;50.888;4.466;2023-03-21T02:49:36;11.40;99.90
18446;DHT22;9352;50.888;4.466;2023-03-21T02:52:12;11.40;99.90
18446;DHT22;9352;50.888;4.466;2023-03-21T02:54:42;11.40;99.90
18446;DHT22;9352;50.888;4.466;2023-03-21T02:57:12;11.50;99.90
18446;DHT22;9352;50.888;4.466;2023-03-21T02:59:41;11.40;99.90
18446;DHT22;9352;50.888;4.466;2023-03-21T03:02:09;11.40;99.90
18446;DHT22;9352;50.888;4.466;2023-03-21T03:04:36;11.40;99.90
18446;DHT22;9352;50.888;4.466;2023-03-21T03:07:20;11.40;99.90
18446;DHT22;9352;50.888;4.466;2023-03-21T03:10:02;11.40;99.90
18446;DHT22;9352;50.888;4.466;2023-03-21T03:12:37;11.40;99.90
18446;DHT22;9352;50.888;4.466;2023-03-21T03:15:16;11.40;99.90
18446;DHT22;9352;50.888;4.466;2023-03-21T03:17:50;11.40;99.90
18446;DHT22;9352;50.888;4.466;2023-03-21T03:20:24;11.40;99.90
18446;DHT22;9352;50.888;4.466;2023-03-21T03:23:03;11.40;99.90
18446;DHT22;9352;50.888;4.466;2023-03-21T03:25:36;11.40;99.90
18446;DHT22;9352;50.888;4.466;2023-03-21T03:28:06;11.30;99.90
18446;DHT22;9352;50.888;4.466;2023-03-21T03:30:35;11.40;99.90
18446;DHT22;9352;50.888;4.466;2023-03-21T03:33:04;11.40;99.90
18446;DHT22;9352;50.888;4.466;2023-03-21T03:35:32;11.30;99.90
18446;DHT22;9352;50.888;4.466;2023-03-21T03:38:03;11.30;99.90
18446;DHT22;9352;50.888;4.466;2023-03-21T03:40:36;11.40;99.90
18446;DHT22;9352;50.888;4.466;2023-03-21T03:43:09;11.40;99.90
18446;DHT22;9352;50.888;4.466;2023-03-21T03:45:41;11.40;99.90
18446;DHT22;9352;50.888;4.466;2023-03-21T03:48:14;11.40;99.90
18446;DHT22;9352;50.888;4.466;2023-03-21T03:50:48;11.50;99.90
18446;DHT22;9352;50.888;4.466;2023-03-21T03:53:21;11.50;99.90
18446;DHT22;9352;50.888;4.466;2023-03-21T03:55:49;11.50;99.90
18446;DHT22;9352;50.888;4.466;2023-03-21T03:58:18;11.50;99.90
18446;DHT22;9352;50.888;4.466;2023-03-21T04:00:46;11.60;99.90
18446;DHT22;9352;50.888;4.466;2023-03-21T04:03:13;11.60;99.90
18446;DHT22;9352;50.888;4.466;2023-03-21T04:05:40;11.60;99.90
18446;DHT22;9352;50.888;4.466;2023-03-21T04:08:10;11.60;99.90
18446;DHT22;9352;50.888;4.466;2023-03-21T04:10:39;11.60;99.90
18446;DHT22;9352;50.888;4.466;2023-03-21T04:13:06;11.70;99.90
18446;DHT22;9352;50.888;4.466;2023-03-21T04:15:32;11.70;99.90
18446;DHT22;9352;50.888;4.466;2023-03-21T04:17:59;11.70;99.90
18446;DHT22;9352;50.888;4.466;2023-03-21T04:20:26;11.70;99.90
18446;DHT22;9352;50.888;4.466;2023-03-21T04:22:53;11.70;99.90
18446;DHT22;9352;50.888;4.466;2023-03-21T04:25:21;11.70;99.90
18446;DHT22;9352;50.888;4.466;2023-03-21T04:27:49;11.70;99.90
18446;DHT22;9352;50.888;4.466;2023-03-21T04:30:16;11.70;99.90
18446;DHT22;9352;50.888;4.466;2023-03-21T04:32:44;11.70;99.90
18446;DHT22;9352;50.888;4.466;2023-03-21T04:35:21;11.70;99.90
18446;DHT22;9352;50.888;4.466;2023-03-21T04:37:48;11.70;99.90
18446;DHT22;9352;50.888;4.466;2023-03-21T04:40:16;11.70;99.90
18446;DHT22;9352;50.888;4.466;2023-03-21T04:42:43;11.70;99.90
18446;DHT22;9352;50.888;4.466;2023-03-21T04:45:12;11.70;99.90
18446;DHT22;9352;50.888;4.466;2023-03-21T04:47:40;11.70;99.90
18446;DHT22;9352;50.888;4.466;2023-03-21T04:50:08;11.70;99.90
18446;DHT22;9352;50.888;4.466;2023-03-21T04:52:35;11.70;99.90
18446;DHT22;9352;50.888;4.466;2023-03-21T04:55:02;11.70;99.90
18446;DHT22;9352;50.888;4.466;2023-03-21T04:57:30;11.70;99.90
18446;DHT22;9352;50.888;4.466;2023-03-21T04:59:57;11.70;99.90
18446;DHT22;9352;50.888;4.466;2023-03-21T05:02:25;11.70;99.90
18446;DHT22;9352;50.888;4.466;2023-03-21T05:04:52;11.70;99.90
18446;DHT22;9352;50.888;4.466;2023-03-21T05:07:19;11.70;99.90
18446;DHT22;9352;50.888;4.466;2023-03-21T05:09:51;11.70;99.90
18446;DHT22;9352;50.888;4.466;2023-03-21T05:12:17;11.70;99.90
18446;DHT22;9352;50.888;4.466;2023-03-21T05:14:45;11.70;99.90
18446;DHT22;9352;50.888;4.466;2023-03-21T05:17:12;11.70;99.90
18446;DHT22;9352;50.888;4.466;2023-03-21T05:19:51;11.70;99.90
18446;DHT22;9352;50.888;4.466;2023-03-21T05:22:19;11.70;99.90
18446;DHT22;9352;50.888;4.466;2023-03-21T05:24:46;11.70;99.90
18446;DHT22;9352;50.888;4.466;2023-03-21T05:27:15;11.70;99.90
18446;DHT22;9352;50.888;4.466;2023-03-21T05:29:58;11.70;99.90
18446;DHT22;9352;50.888;4.466;2023-03-21T05:32:25;11.70;99.90
18446;DHT22;9352;50.888;4.466;2023-03-21T05:34:53;11.70;99.90
18446;DHT22;9352;50.888;4.466;2023-03-21T05:37:20;11.70;99.90
18446;DHT22;9352;50.888;4.466;2023-03-21T05:39:47;11.70;99.90
18446;DHT22;9352;50.888;4.466;2023-03-21T05:42:14;11.70;99.90
18446;DHT22;9352;50.888;4.466;2023-03-21T05:44:43;11.70;99.90
18446;DHT22;9352;50.888;4.466;2023-03-21T05:47:10;11.70;99.90
18446;DHT22;9352;50.888;4.466;2023-03-21T05:49:37;11.70;99.90
18446;DHT22;9352;50.888;4.466;2023-03-21T05:52:06;11.70;99.90
18446;DHT22;9352;50.888;4.466;2023-03-21T05:54:33;11.70;99.90
18446;DHT22;9352;50.888;4.466;2023-03-21T05:57:00;11.70;99.90
18446;DHT22;9352;50.888;4.466;2023-03-21T05:59:27;11.70;99.90
18446;DHT22;9352;50.888;4.466;2023-03-21T06:01:54;11.70;99.90
18446;DHT22;9352;50.888;4.466;2023-03-21T06:04:21;11.70;99.90
18446;DHT22;9352;50.888;4.466;2023-03-21T06:06:48;11.70;99.90
18446;DHT22;9352;50.888;4.466;2023-03-21T06:09:17;11.70;99.90
18446;DHT22;9352;50.888;4.466;2023-03-21T06:11:47;11.70;99.90
18446;DHT22;9352;50.888;4.466;2023-03-21T06:14:15;11.70;99.90
18446;DHT22;9352;50.888;4.466;2023-03-21T06:16:42;11.60;99.90
18446;DHT22;9352;50.888;4.466;2023-03-21T06:19:08;11.60;99.90
18446;DHT22;9352;50.888;4.466;2023-03-21T06:21:35;11.50;99.90
18446;DHT22;9352;50.888;4.466;2023-03-21T06:24:02;11.50;99.90
18446;DHT22;9352;50.888;4.466;2023-03-21T06:26:31;11.50;99.90
18446;DHT22;9352;50.888;4.466;2023-03-21T06:28:58;11.50;99.90
18446;DHT22;9352;50.888;4.466;2023-03-21T06:31:25;11.40;99.90
18446;DHT22;9352;50.888;4.466;2023-03-21T06:33:52;11.40;99.90
18446;DHT22;9352;50.888;4.466;2023-03-21T06:36:19;11.40;99.90
18446;DHT22;9352;50.888;4.466;2023-03-21T06:38:46;11.30;99.90
18446;DHT22;9352;50.888;4.466;2023-03-21T06:41:14;11.30;99.90
18446;DHT22;9352;50.888;4.466;2023-03-21T06:43:42;11.30;99.90
18446;DHT22;9352;50.888;4.466;2023-03-21T06:46:09;11.30;99.90
18446;DHT22;9352;50.888;4.466;2023-03-21T06:48:36;11.30;99.90
18446;DHT22;9352;50.888;4.466;2023-03-21T06:51:09;11.30;99.90
18446;DHT22;9352;50.888;4.466;2023-03-21T06:53:36;11.30;99.90
18446;DHT22;9352;50.888;4.466;2023-03-21T06:56:04;11.30;99.90
18446;DHT22;9352;50.888;4.466;2023-03-21T06:58:31;11.30;99.90
18446;DHT22;9352;50.888;4.466;2023-03-21T07:01:00;11.30;99.90
18446;DHT22;9352;50.888;4.466;2023-03-21T07:03:27;11.30;99.90
18446;DHT22;9352;50.888;4.466;2023-03-21T07:05:54;11.30;99.90
18446;DHT22;9352;50.888;4.466;2023-03-21T07:08:21;11.30;99.90
18446;DHT22;9352;50.888;4.466;2023-03-21T07:10:49;11.40;99.90
18446;DHT22;9352;50.888;4.466;2023-03-21T07:13:16;11.40;99.90
18446;DHT22;9352;50.888;4.466;2023-03-21T07:15:43;11.40;99.90
18446;DHT22;9352;50.888;4.466;2023-03-21T07:18:11;11.40;99.90
18446;DHT22;9352;50.888;4.466;2023-03-21T07:20:38;11.40;99.90
18446;DHT22;9352;50.888;4.466;2023-03-21T07:23:05;11.50;99.90
18446;DHT22;9352;50.888;4.466;2023-03-21T07:25:32;11.40;99.90
18446;DHT22;9352;50.888;4.466;2023-03-21T07:27:59;11.50;99.90
18446;DHT22;9352;50.888;4.466;2023-03-21T07:30:26;11.50;99.90
18446;DHT22;9352;50.888;4.466;2023-03-21T07:32:53;11.60;99.90
18446;DHT22;9352;50.888;4.466;2023-03-21T07:35:21;11.70;99.90
18446;DHT22;9352;50.888;4.466;2023-03-21T07:37:48;11.70;99.90
18446;DHT22;9352;50.888;4.466;2023-03-21T07:40:16;11.80;99.90
18446;DHT22;9352;50.888;4.466;2023-03-21T07:42:42;11.90;99.90
18446;DHT22;9352;50.888;4.466;2023-03-21T07:45:10;12.00;99.90
18446;DHT22;9352;50.888;4.466;2023-03-21T07:47:39;12.00;99.90
18446;DHT22;9352;50.888;4.466;2023-03-21T07:50:07;12.10;99.90
18446;DHT22;9352;50.888;4.466;2023-03-21T07:52:36;12.00;99.90
18446;DHT22;9352;50.888;4.466;2023-03-21T07:55:04;12.10;99.90
18446;DHT22;9352;50.888;4.466;2023-03-21T07:57:31;12.00;99.90
18446;DHT22;9352;50.888;4.466;2023-03-21T07:59:58;12.10;99.90
18446;DHT22;9352;50.888;4.466;2023-03-21T08:02:25;12.10;99.90
18446;DHT22;9352;50.888;4.466;2023-03-21T08:04:52;12.00;99.90
18446;DHT22;9352;50.888;4.466;2023-03-21T08:07:19;12.00;99.90
18446;DHT22;9352;50.888;4.466;2023-03-21T08:09:47;12.00;99.90
18446;DHT22;9352;50.888;4.466;2023-03-21T08:12:14;12.00;99.90
18446;DHT22;9352;50.888;4.466;2023-03-21T08:14:41;12.00;99.90
18446;DHT22;9352;50.888;4.466;2023-03-21T08:17:08;11.90;99.90
18446;DHT22;9352;50.888;4.466;2023-03-21T08:19:35;12.00;99.90
18446;DHT22;9352;50.888;4.466;2023-03-21T08:22:03;12.00;99.90
18446;DHT22;9352;50.888;4.466;2023-03-21T08:24:31;12.10;99.90
18446;DHT22;9352;50.888;4.466;2023-03-21T08:27:00;12.10;99.90
18446;DHT22;9352;50.888;4.466;2023-03-21T08:29:27;12.10;99.90
18446;DHT22;9352;50.888;4.466;2023-03-21T08:31:54;12.20;99.90
18446;DHT22;9352;50.888;4.466;2023-03-21T08:34:22;12.20;99.90
18446;DHT22;9352;50.888;4.466;2023-03-21T08:36:49;12.20;99.90
18446;DHT22;9352;50.888;4.466;2023-03-21T08:39:16;12.30;99.90
18446;DHT22;9352;50.888;4.466;2023-03-21T08:41:43;12.30;99.90
18446;DHT22;9352;50.888;4.466;2023-03-21T08:44:11;12.40;99.90
18446;DHT22;9352;50.888;4.466;2023-03-21T08:46:38;12.30;99.90
18446;DHT22;9352;50.888;4.466;2023-03-21T08:49:05;12.40;99.90
18446;DHT22;9352;50.888;4.466;2023-03-21T08:51:32;12.40;99.90
18446;DHT22;9352;50.888;4.466;2023-03-21T08:53:59;12.50;99.90
18446;DHT22;9352;50.888;4.466;2023-03-21T08:56:26;12.60;99.90
18446;DHT22;9352;50.888;4.466;2023-03-21T08:58:53;12.70;99.90
18446;DHT22;9352;50.888;4.466;2023-03-21T09:01:21;12.80;99.90
18446;DHT22;9352;50.888;4.466;2023-03-21T09:03:48;12.90;99.90
18446;DHT22;9352;50.888;4.466;2023-03-21T09:06:14;13.10;99.90
18446;DHT22;9352;50.888;4.466;2023-03-21T09:08:41;13.30;99.90
18446;DHT22;9352;50.888;4.466;2023-03-21T09:11:10;13.40;99.90
18446;DHT22;9352;50.888;4.466;2023-03-21T09:13:37;13.50;99.90
18446;DHT22;9352;50.888;4.466;2023-03-21T09:16:05;13.50;99.90
18446;DHT22;9352;50.888;4.466;2023-03-21T09:18:33;13.70;99.90
18446;DHT22;9352;50.888;4.466;2023-03-21T09:21:14;13.60;99.90
18446;DHT22;9352;50.888;4.466;2023-03-21T09:23:42;13.60;99.90
18446;DHT22;9352;50.888;4.466;2023-03-21T09:26:09;13.50;99.90
18446;DHT22;9352;50.888;4.466;2023-03-21T09:28:37;13.40;99.90
18446;DHT22;9352;50.888;4.466;2023-03-21T09:31:05;13.40;99.90
18446;DHT22;9352;50.888;4.466;2023-03-21T09:33:38;13.30;99.90
18446;DHT22;9352;50.888;4.466;2023-03-21T09:36:06;13.20;99.90
18446;DHT22;9352;50.888;4.466;2023-03-21T09:38:38;13.20;99.90
18446;DHT22;9352;50.888;4.466;2023-03-21T09:41:19;13.20;99.90
18446;DHT22;9352;50.888;4.466;2023-03-21T09:44:02;13.40;99.90
18446;DHT22;9352;50.888;4.466;2023-03-21T09:46:37;13.40;99.90
18446;DHT22;9352;50.888;4.466;2023-03-21T09:49:15;13.50;99.90
18446;DHT22;9352;50.888;4.466;2023-03-21T09:51:47;13.60;99.90
18446;DHT22;9352;50.888;4.466;2023-03-21T09:54:19;13.80;99.90
18446;DHT22;9352;50.888;4.466;2023-03-21T09:56:49;13.90;99.90
18446;DHT22;9352;50.888;4.466;2023-03-21T09:59:29;14.00;99.90
18446;DHT22;9352;50.888;4.466;2023-03-21T10:02:01;14.10;99.90
18446;DHT22;9352;50.888;4.466;2023-03-21T10:04:30;14.20;99.90
18446;DHT22;9352;50.888;4.466;2023-03-21T10:07:00;14.20;99.90
18446;DHT22;9352;50.888;4.466;2023-03-21T10:09:29;14.30;99.90
18446;DHT22;9352;50.888;4.466;2023-03-21T10:12:02;14.20;99.90
18446;DHT22;9352;50.888;4.466;2023-03-21T10:14:33;14.20;99.90
18446;DHT22;9352;50.888;4.466;2023-03-21T10:17:06;14.30;99.90
18446;DHT22;9352;50.888;4.466;2023-03-21T10:19:38;14.30;99.90
18446;DHT22;9352;50.888;4.466;2023-03-21T10:22:08;14.30;99.90
18446;DHT22;9352;50.888;4.466;2023-03-21T10:24:36;14.30;99.90
18446;DHT22;9352;50.888;4.466;2023-03-21T10:27:03;14.30;99.90
18446;DHT22;9352;50.888;4.466;2023-03-21T10:29:34;14.40;99.90
18446;DHT22;9352;50.888;4.466;2023-03-21T10:32:08;14.40;99.90
18446;DHT22;9352;50.888;4.466;2023-03-21T10:34:39;14.50;99.90
18446;DHT22;9352;50.888;4.466;2023-03-21T10:37:07;14.60;99.90
18446;DHT22;9352;50.888;4.466;2023-03-21T10:39:36;14.70;99.90
18446;DHT22;9352;50.888;4.466;2023-03-21T10:42:04;14.80;99.90
18446;DHT22;9352;50.888;4.466;2023-03-21T10:44:32;14.90;99.90
18446;DHT22;9352;50.888;4.466;2023-03-21T10:47:03;15.10;99.90
18446;DHT22;9352;50.888;4.466;2023-03-21T10:49:31;15.30;99.90
18446;DHT22;9352;50.888;4.466;2023-03-21T10:52:02;15.30;99.90
18446;DHT22;9352;50.888;4.466;2023-03-21T10:54:31;15.50;99.90
18446;DHT22;9352;50.888;4.466;2023-03-21T10:57:03;15.50;99.90
18446;DHT22;9352;50.888;4.466;2023-03-21T10:59:36;15.60;99.90
18446;DHT22;9352;50.888;4.466;2023-03-21T11:02:05;16.00;99.90
18446;DHT22;9352;50.888;4.466;2023-03-21T11:04:32;16.50;99.90
18446;DHT22;9352;50.888;4.466;2023-03-21T11:07:03;16.50;99.90
18446;DHT22;9352;50.888;4.466;2023-03-21T11:09:43;16.60;99.90
18446;DHT22;9352;50.888;4.466;2023-03-21T11:12:13;16.60;99.90
18446;DHT22;9352;50.888;4.466;2023-03-21T11:14:42;16.80;99.90
18446;DHT22;9352;50.888;4.466;2023-03-21T11:17:21;17.00;99.90
18446;DHT22;9352;50.888;4.466;2023-03-21T11:19:49;17.10;99.90
18446;DHT22;9352;50.888;4.466;2023-03-21T11:22:20;17.30;99.90
18446;DHT22;9352;50.888;4.466;2023-03-21T11:24:53;17.10;99.90
18446;DHT22;9352;50.888;4.466;2023-03-21T11:27:22;17.00;99.90
18446;DHT22;9352;50.888;4.466;2023-03-21T11:29:54;17.00;99.90
18446;DHT22;9352;50.888;4.466;2023-03-21T11:32:24;16.80;99.90
18446;DHT22;9352;50.888;4.466;2023-03-21T11:34:56;16.70;99.90
18446;DHT22;9352;50.888;4.466;2023-03-21T11:37:29;16.50;99.90
18446;DHT22;9352;50.888;4.466;2023-03-21T11:40:12;16.40;99.90
18446;DHT22;9352;50.888;4.466;2023-03-21T11:42:46;16.00;99.90
18446;DHT22;9352;50.888;4.466;2023-03-21T11:45:16;15.90;99.90
18446;DHT22;9352;50.888;4.466;2023-03-21T11:47:44;15.90;99.90
18446;DHT22;9352;50.888;4.466;2023-03-21T11:50:18;15.70;99.90
18446;DHT22;9352;50.888;4.466;2023-03-21T11:52:53;16.00;99.90
18446;DHT22;9352;50.888;4.466;2023-03-21T11:55:35;16.40;99.90
18446;DHT22;9352;50.888;4.466;2023-03-21T11:58:16;17.00;99.90
18446;DHT22;9352;50.888;4.466;2023-03-21T12:00:50;18.20;99.90
18446;DHT22;9352;50.888;4.466;2023-03-21T12:03:45;19.10;99.90
18446;DHT22;9352;50.888;4.466;2023-03-21T12:06:18;19.40;99.90
18446;DHT22;9352;50.888;4.466;2023-03-21T12:08:58;19.30;99.90
18446;DHT22;9352;50.888;4.466;2023-03-21T12:11:36;18.90;99.90
18446;DHT22;9352;50.888;4.466;2023-03-21T12:14:09;18.90;99.90
18446;DHT22;9352;50.888;4.466;2023-03-21T12:16:52;19.00;99.90
18446;DHT22;9352;50.888;4.466;2023-03-21T12:19:45;19.10;99.90
18446;DHT22;9352;50.888;4.466;2023-03-21T12:22:23;18.80;99.90
18446;DHT22;9352;50.888;4.466;2023-03-21T12:24:55;18.30;99.90
18446;DHT22;9352;50.888;4.466;2023-03-21T12:27:30;17.70;99.90
18446;DHT22;9352;50.888;4.466;2023-03-21T12:30:12;17.40;99.90
18446;DHT22;9352;50.888;4.466;2023-03-21T12:32:55;17.20;99.90
18446;DHT22;9352;50.888;4.466;2023-03-21T12:35:34;17.10;99.90
18446;DHT22;9352;50.888;4.466;2023-03-21T12:38:12;17.10;99.90
18446;DHT22;9352;50.888;4.466;2023-03-21T12:40:54;17.00;99.90
18446;DHT22;9352;50.888;4.466;2023-03-21T12:43:39;16.90;99.90
18446;DHT22;9352;50.888;4.466;2023-03-21T12:46:12;16.70;99.90
18446;DHT22;9352;50.888;4.466;2023-03-21T12:48:43;16.60;99.90
18446;DHT22;9352;50.888;4.466;2023-03-21T12:51:13;16.60;99.90
18446;DHT22;9352;50.888;4.466;2023-03-21T12:53:49;16.50;99.90
18446;DHT22;9352;50.888;4.466;2023-03-21T12:56:22;16.40;99.90
18446;DHT22;9352;50.888;4.466;2023-03-21T12:58:54;16.50;99.90
18446;DHT22;9352;50.888;4.466;2023-03-21T13:01:23;17.00;99.90
18446;DHT22;9352;50.888;4.466;2023-03-21T13:04:07;17.40;99.90
18446;DHT22;9352;50.888;4.466;2023-03-21T13:06:36;17.60;99.90
18446;DHT22;9352;50.888;4.466;2023-03-21T13:09:09;17.70;99.90
18446;DHT22;9352;50.888;4.466;2023-03-21T13:11:39;17.80;99.90
18446;DHT22;9352;50.888;4.466;2023-03-21T13:14:09;17.80;99.90
18446;DHT22;9352;50.888;4.466;2023-03-21T13:16:40;17.80;99.90
18446;DHT22;9352;50.888;4.466;2023-03-21T13:19:15;17.80;99.90
18446;DHT22;9352;50.888;4.466;2023-03-21T13:21:50;17.70;99.90
18446;DHT22;9352;50.888;4.466;2023-03-21T13:24:27;17.60;99.90
18446;DHT22;9352;50.888;4.466;2023-03-21T13:27:01;17.40;99.90
18446;DHT22;9352;50.888;4.466;2023-03-21T13:29:30;17.30;99.90
18446;DHT22;9352;50.888;4.466;2023-03-21T13:32:07;17.40;99.90
18446;DHT22;9352;50.888;4.466;2023-03-21T13:34:34;17.30;99.90
18446;DHT22;9352;50.888;4.466;2023-03-21T13:37:04;17.10;99.90
18446;DHT22;9352;50.888;4.466;2023-03-21T13:39:31;16.90;99.90
18446;DHT22;9352;50.888;4.466;2023-03-21T13:42:04;16.80;99.90
18446;DHT22;9352;50.888;4.466;2023-03-21T13:44:38;16.90;99.90
18446;DHT22;9352;50.888;4.466;2023-03-21T13:47:22;16.90;99.90
18446;DHT22;9352;50.888;4.466;2023-03-21T13:50:22;16.90;99.90
18446;DHT22;9352;50.888;4.466;2023-03-21T13:56:07;16.90;99.90
18446;DHT22;9352;50.888;4.466;2023-03-21T13:58:38;16.90;99.90
18446;DHT22;9352;50.888;4.466;2023-03-21T14:01:37;16.80;99.90
18446;DHT22;9352;50.888;4.466;2023-03-21T14:04:10;16.80;99.90
18446;DHT22;9352;50.888;4.466;2023-03-21T14:06:43;16.90;99.90
18446;DHT22;9352;50.888;4.466;2023-03-21T14:09:21;16.70;99.90
18446;DHT22;9352;50.888;4.466;2023-03-21T14:11:51;16.50;99.90
18446;DHT22;9352;50.888;4.466;2023-03-21T14:14:23;16.40;99.90
18446;DHT22;9352;50.888;4.466;2023-03-21T14:16:52;16.20;99.90
18446;DHT22;9352;50.888;4.466;2023-03-21T14:19:19;16.10;99.90
18446;DHT22;9352;50.888;4.466;2023-03-21T14:21:47;16.20;99.90
18446;DHT22;9352;50.888;4.466;2023-03-21T14:24:19;16.40;99.90
18446;DHT22;9352;50.888;4.466;2023-03-21T14:26:48;16.40;99.90
18446;DHT22;9352;50.888;4.466;2023-03-21T14:29:22;16.20;99.90
18446;DHT22;9352;50.888;4.466;2023-03-21T14:31:50;15.90;99.90
18446;DHT22;9352;50.888;4.466;2023-03-21T14:34:17;15.70;99.90
18446;DHT22;9352;50.888;4.466;2023-03-21T14:36:45;15.60;99.90
18446;DHT22;9352;50.888;4.466;2023-03-21T14:39:14;15.50;99.90
18446;DHT22;9352;50.888;4.466;2023-03-21T14:41:44;15.30;99.90
18446;DHT22;9352;50.888;4.466;2023-03-21T14:44:16;15.40;99.90
18446;DHT22;9352;50.888;4.466;2023-03-21T14:46:48;15.50;99.90
18446;DHT22;9352;50.888;4.466;2023-03-21T14:49:25;15.40;99.90
18446;DHT22;9352;50.888;4.466;2023-03-21T14:51:55;15.40;99.90
18446;DHT22;9352;50.888;4.466;2023-03-21T14:54:22;15.40;99.90
18446;DHT22;9352;50.888;4.466;2023-03-21T14:56:52;15.30;99.90
18446;DHT22;9352;50.888;4.466;2023-03-21T14:59:22;15.30;99.90
18446;DHT22;9352;50.888;4.466;2023-03-21T15:01:52;15.40;99.90
18446;DHT22;9352;50.888;4.466;2023-03-21T15:04:20;15.50;99.90
18446;DHT22;9352;50.888;4.466;2023-03-21T15:06:52;15.80;99.90
18446;DHT22;9352;50.888;4.466;2023-03-21T15:09:22;15.90;99.90
18446;DHT22;9352;50.888;4.466;2023-03-21T15:11:51;16.40;99.90
18446;DHT22;9352;50.888;4.466;2023-03-21T15:14:25;16.50;99.90
18446;DHT22;9352;50.888;4.466;2023-03-21T15:16:56;16.20;99.90
18446;DHT22;9352;50.888;4.466;2023-03-21T15:19:27;16.10;99.90
18446;DHT22;9352;50.888;4.466;2023-03-21T15:22:03;15.90;99.90
18446;DHT22;9352;50.888;4.466;2023-03-21T15:24:36;15.70;99.90
18446;DHT22;9352;50.888;4.466;2023-03-21T15:27:07;15.60;99.90
18446;DHT22;9352;50.888;4.466;2023-03-21T15:29:36;15.40;99.90
18446;DHT22;9352;50.888;4.466;2023-03-21T15:32:06;15.30;99.90
18446;DHT22;9352;50.888;4.466;2023-03-21T15:34:38;15.30;99.90
18446;DHT22;9352;50.888;4.466;2023-03-21T15:37:06;15.20;99.90
18446;DHT22;9352;50.888;4.466;2023-03-21T15:39:34;15.10;99.90
18446;DHT22;9352;50.888;4.466;2023-03-21T15:42:03;15.10;99.90
18446;DHT22;9352;50.888;4.466;2023-03-21T15:44:33;15.00;99.90
18446;DHT22;9352;50.888;4.466;2023-03-21T15:47:00;15.00;99.90
18446;DHT22;9352;50.888;4.466;2023-03-21T15:49:30;14.80;99.90
18446;DHT22;9352;50.888;4.466;2023-03-21T15:52:04;14.70;99.90
18446;DHT22;9352;50.888;4.466;2023-03-21T15:54:34;14.70;99.90
18446;DHT22;9352;50.888;4.466;2023-03-21T15:57:20;14.60;99.90
18446;DHT22;9352;50.888;4.466;2023-03-21T15:59:48;14.50;99.90
18446;DHT22;9352;50.888;4.466;2023-03-21T16:02:17;14.40;99.90
18446;DHT22;9352;50.888;4.466;2023-03-21T16:05:16;14.30;99.90
18446;DHT22;9352;50.888;4.466;2023-03-21T16:07:45;14.20;99.90
18446;DHT22;9352;50.888;4.466;2023-03-21T16:10:24;14.10;99.90
18446;DHT22;9352;50.888;4.466;2023-03-21T16:12:52;14.00;99.90
18446;DHT22;9352;50.888;4.466;2023-03-21T16:15:19;14.00;99.90
18446;DHT22;9352;50.888;4.466;2023-03-21T16:17:49;13.90;99.90
18446;DHT22;9352;50.888;4.466;2023-03-21T16:20:20;13.90;99.90